Time;durP1;ratioP1;P1;durP2;ratioP2;P2;SDS_P1;SDS_P2;PMS_P1;PMS_P2;Temp;Humidity;BMP_temperature;BMP_pressure;BME280_temperature;BME280_humidity;BME280_pressure;Samples;Min_cycle;Max_cycle;Signal;HPM_P1;HPM_P2
2023/01/07 00:02:09;;;;;;;5.07;2.55;;;;;;;;;;7390546;19;20004;-70
2023/01/07 00:04:34;;;;;;;5.82;2.20;;;;;;;;;;7388864;19;20001;-71
2023/01/07 00:07:00;;;;;;;4.25;2.47;;;;;;;;;;7390656;19;20002;-71
2023/01/07 00:09:25;;;;;;;5.03;2.33;;;;;;;;;;7390041;19;20573;-71
2023/01/07 00:11:50;;;;;;;4.20;2.28;;;;;;;;;;7390568;19;20001;-70
2023/01/07 00:14:16;;;;;;;4.05;2.35;;;;;;;;;;7388955;19;20001;-70
2023/01/07 00:16:41;;;;;;;4.18;2.25;;;;;;;;;;7390332;19;19999;-71
2023/01/07 00:19:11;;;;;;;3.55;2.15;;;;;;;;;;7389681;19;20001;-70
2023/01/07 00:21:36;;;;;;;4.95;2.35;;;;;;;;;;7388537;19;19994;-71
2023/01/07 00:24:04;;;;;;;5.22;2.13;;;;;;;;;;7388795;19;20009;-70
2023/01/07 00:26:32;;;;;;;4.03;2.17;;;;;;;;;;7388057;19;20019;-70
2023/01/07 00:28:57;;;;;;;4.05;2.00;;;;;;;;;;7383292;19;20003;-70
2023/01/07 00:31:25;;;;;;;3.63;2.00;;;;;;;;;;7389923;19;20023;-70
2023/01/07 00:36:21;;;;;;;3.53;2.00;;;;;;;;;;7390650;19;20076;-70
2023/01/07 00:38:47;;;;;;;4.30;1.65;;;;;;;;;;7389009;19;20492;-71
2023/01/07 00:41:12;;;;;;;3.72;2.17;;;;;;;;;;7389757;19;19995;-70
2023/01/07 00:43:38;;;;;;;4.60;2.03;;;;;;;;;;7388441;19;20456;-70
2023/01/07 00:46:03;;;;;;;3.88;1.90;;;;;;;;;;7388157;19;20018;-70
2023/01/07 00:48:28;;;;;;;3.33;1.88;;;;;;;;;;7389425;19;20343;-71
2023/01/07 00:50:55;;;;;;;4.30;1.80;;;;;;;;;;7389939;19;20058;-69
2023/01/07 00:53:21;;;;;;;3.50;1.90;;;;;;;;;;7392926;19;20002;-69
2023/01/07 00:55:47;;;;;;;3.88;2.00;;;;;;;;;;7397056;19;20208;-70
2023/01/07 00:58:30;;;;;;;3.80;2.10;;;;;;;;;;7397278;19;20011;-70
2023/01/07 01:00:57;;;;;;;4.25;2.30;;;;;;;;;;7396890;19;20103;-69
2023/01/07 01:03:24;;;;;;;3.80;1.50;;;;;;;;;;7396204;19;19999;-69
2023/01/07 01:05:49;;;;;;;2.70;1.70;;;;;;;;;;7394228;19;20452;-70
2023/01/07 01:08:16;;;;;;;4.15;2.00;;;;;;;;;;7396832;19;19991;-70
2023/01/07 01:10:42;;;;;;;4.57;1.90;;;;;;;;;;7397159;19;20406;-69
2023/01/07 01:13:11;;;;;;;4.38;2.10;;;;;;;;;;7395122;19;19991;-70
2023/01/07 01:15:41;;;;;;;2.90;1.90;;;;;;;;;;7395177;19;20005;-69
2023/01/07 01:18:06;;;;;;;4.63;2.20;;;;;;;;;;7390486;19;19995;-70
2023/01/07 01:20:32;;;;;;;3.75;2.00;;;;;;;;;;7397980;19;20099;-70
2023/01/07 01:22:58;;;;;;;3.30;2.10;;;;;;;;;;7394758;19;20033;-70
2023/01/07 01:25:23;;;;;;;4.55;1.98;;;;;;;;;;7394471;19;19990;-69
2023/01/07 01:27:48;;;;;;;2.85;1.90;;;;;;;;;;7395907;19;20029;-69
2023/01/07 01:30:14;;;;;;;1.98;1.50;;;;;;;;;;7397557;19;20420;-69
2023/01/07 01:32:39;;;;;;;2.92;1.70;;;;;;;;;;7394683;19;20486;-70
2023/01/07 01:35:05;;;;;;;4.20;2.10;;;;;;;;;;7396394;19;20339;-70
2023/01/07 01:37:30;;;;;;;5.00;1.90;;;;;;;;;;7395590;19;20448;-70
2023/01/07 01:39:55;;;;;;;4.65;1.92;;;;;;;;;;7393962;19;20586;-69
2023/01/07 01:42:23;;;;;;;3.00;1.83;;;;;;;;;;7399424;19;19994;-70
2023/01/07 01:44:56;;;;;;;2.50;1.65;;;;;;;;;;7393193;19;19999;-70
2023/01/07 01:47:25;;;;;;;6.03;2.17;;;;;;;;;;7393744;19;20003;-70
2023/01/07 01:50:09;;;;;;;3.45;1.77;;;;;;;;;;7393809;19;20095;-70
2023/01/07 01:52:42;;;;;;;3.70;1.85;;;;;;;;;;7394887;19;20006;-70
2023/01/07 01:55:09;;;;;;;3.28;1.80;;;;;;;;;;7393953;19;20002;-70
2023/01/07 01:57:36;;;;;;;2.72;1.75;;;;;;;;;;7393445;19;20449;-71
2023/01/07 02:00:03;;;;;;;2.40;1.80;;;;;;;;;;7394124;19;20019;-71
2023/01/07 02:02:33;;;;;;;3.63;1.85;;;;;;;;;;7394131;19;19998;-70
2023/01/07 02:04:59;;;;;;;4.60;1.83;;;;;;;;;;7391658;19;20416;-70
2023/01/07 02:07:25;;;;;;;4.60;2.05;;;;;;;;;;7393104;19;20452;-70
2023/01/07 02:09:59;;;;;;;3.92;2.15;;;;;;;;;;7392818;19;20001;-70
2023/01/07 02:13:06;;;;;;;5.60;1.77;;;;;;;;;;7394176;19;20349;-70
2023/01/07 02:15:56;;;;;;;3.60;2.05;;;;;;;;;;7394431;19;19997;-70
2023/01/07 02:18:35;;;;;;;2.75;1.83;;;;;;;;;;7393157;19;20024;-70
2023/01/07 02:21:16;;;;;;;3.50;1.95;;;;;;;;;;7394410;19;20453;-70
2023/01/07 02:24:02;;;;;;;2.20;1.70;;;;;;;;;;7393199;19;20027;-70
2023/01/07 02:26:52;;;;;;;2.80;1.83;;;;;;;;;;7393821;19;20461;-70
2023/01/07 02:29:33;;;;;;;5.82;1.80;;;;;;;;;;7392881;19;20019;-70
2023/01/07 02:32:13;;;;;;;3.30;2.05;;;;;;;;;;7393992;19;19999;-70
2023/01/07 02:34:50;;;;;;;2.95;1.95;;;;;;;;;;7392507;19;19999;-71
2023/01/07 02:37:34;;;;;;;3.17;1.90;;;;;;;;;;7393757;19;19999;-70
2023/01/07 02:40:26;;;;;;;3.83;2.10;;;;;;;;;;7390211;19;19995;-71
2023/01/07 02:43:19;;;;;;;3.35;1.95;;;;;;;;;;7392460;19;20118;-70
2023/01/07 02:45:47;;;;;;;4.20;1.95;;;;;;;;;;7391716;19;19998;-70
2023/01/07 02:48:16;;;;;;;3.15;1.95;;;;;;;;;;7393616;19;19999;-69
2023/01/07 02:50:41;;;;;;;3.92;2.13;;;;;;;;;;7393841;19;20333;-70
2023/01/07 02:53:11;;;;;;;3.78;1.80;;;;;;;;;;7391979;19;20062;-69
2023/01/07 02:56:14;;;;;;;3.43;1.97;;;;;;;;;;7391827;19;20006;-69
2023/01/07 02:58:40;;;;;;;3.03;1.70;;;;;;;;;;7393314;19;20344;-69
2023/01/07 03:01:27;;;;;;;3.25;2.10;;;;;;;;;;7391551;19;20044;-70
2023/01/07 03:04:24;;;;;;;3.45;1.98;;;;;;;;;;7391892;19;20002;-69
2023/01/07 03:07:22;;;;;;;4.20;2.08;;;;;;;;;;7392550;19;20472;-70
2023/01/07 03:09:56;;;;;;;3.90;1.90;;;;;;;;;;7391837;19;20011;-69
2023/01/07 03:12:45;;;;;;;6.15;1.77;;;;;;;;;;7392910;19;20006;-69
2023/01/07 03:15:26;;;;;;;3.97;1.77;;;;;;;;;;7388903;19;20121;-70
2023/01/07 03:18:07;;;;;;;3.42;2.08;;;;;;;;;;7392578;19;19991;-70
2023/01/07 03:20:35;;;;;;;2.40;1.60;;;;;;;;;;7390220;19;19998;-69
2023/01/07 03:23:05;;;;;;;4.32;1.70;;;;;;;;;;7390694;19;19991;-69
2023/01/07 03:25:33;;;;;;;3.58;1.80;;;;;;;;;;7390992;19;19991;-69
2023/01/07 03:27:59;;;;;;;4.80;2.00;;;;;;;;;;7392040;19;20050;-69
2023/01/07 03:30:26;;;;;;;4.30;2.00;;;;;;;;;;7393606;19;19994;-70
2023/01/07 03:33:18;;;;;;;3.88;2.00;;;;;;;;;;7394889;19;20010;-71
2023/01/07 03:35:48;;;;;;;4.03;2.08;;;;;;;;;;7391778;19;20016;-71
2023/01/07 03:38:16;;;;;;;4.22;2.42;;;;;;;;;;7392292;19;20335;-70
2023/01/07 03:40:42;;;;;;;3.22;1.92;;;;;;;;;;7391870;19;20005;-70
2023/01/07 03:43:16;;;;;;;3.53;1.90;;;;;;;;;;7389272;19;19995;-70
2023/01/07 03:45:42;;;;;;;3.55;1.90;;;;;;;;;;7391063;19;20417;-70
2023/01/07 03:48:07;;;;;;;5.03;2.17;;;;;;;;;;7391954;19;20095;-70
2023/01/07 03:50:32;;;;;;;4.95;2.33;;;;;;;;;;7389316;19;19994;-70
2023/01/07 03:52:57;;;;;;;4.38;2.00;;;;;;;;;;7390187;19;20016;-71
2023/01/07 03:55:23;;;;;;;4.40;1.90;;;;;;;;;;7391162;19;20325;-70
2023/01/07 03:57:48;;;;;;;3.22;2.10;;;;;;;;;;7391017;19;19998;-70
2023/01/07 04:00:14;;;;;;;3.80;2.22;;;;;;;;;;7389607;19;19998;-71
2023/01/07 04:02:40;;;;;;;4.25;2.40;;;;;;;;;;7392700;19;19994;-70
2023/01/07 04:05:06;;;;;;;4.55;2.10;;;;;;;;;;7389618;19;19998;-71
2023/01/07 04:07:31;;;;;;;3.40;1.80;;;;;;;;;;7390648;19;19995;-70
2023/01/07 04:09:57;;;;;;;5.05;2.20;;;;;;;;;;7388279;19;19999;-70
2023/01/07 04:12:22;;;;;;;4.63;2.10;;;;;;;;;;7390424;19;19994;-71
2023/01/07 04:14:47;;;;;;;6.07;2.25;;;;;;;;;;7387765;19;20456;-71
2023/01/07 04:17:13;;;;;;;3.83;1.90;;;;;;;;;;7390826;19;20370;-70
2023/01/07 04:19:38;;;;;;;3.35;2.05;;;;;;;;;;7389615;19;19994;-70
2023/01/07 04:22:05;;;;;;;3.92;2.13;;;;;;;;;;7390873;19;20063;-71
2023/01/07 04:24:31;;;;;;;4.43;2.40;;;;;;;;;;7388321;19;20054;-70
2023/01/07 04:26:56;;;;;;;5.15;2.38;;;;;;;;;;7389301;19;20003;-71
2023/01/07 04:29:22;;;;;;;3.88;2.10;;;;;;;;;;7387418;19;19999;-71
2023/01/07 04:31:48;;;;;;;3.63;2.17;;;;;;;;;;7389921;19;19991;-70
2023/01/07 04:34:13;;;;;;;5.60;2.40;;;;;;;;;;7388141;19;19999;-70
2023/01/07 04:36:38;;;;;;;6.10;2.50;;;;;;;;;;7390043;19;20019;-69
2023/01/07 04:39:03;;;;;;;5.22;2.33;;;;;;;;;;7389000;19;20461;-69
2023/01/07 04:41:29;;;;;;;4.55;2.85;;;;;;;;;;7387513;19;20090;-69
2023/01/07 04:43:54;;;;;;;11.20;5.57;;;;;;;;;;7387797;19;19994;-70
2023/01/07 04:46:19;;;;;;;18.30;9.60;;;;;;;;;;7387928;19;20286;-70
2023/01/07 04:48:45;;;;;;;6.60;3.15;;;;;;;;;;7387292;19;20011;-70
2023/01/07 04:51:10;;;;;;;5.10;2.90;;;;;;;;;;7389269;19;20002;-70
2023/01/07 04:53:35;;;;;;;6.63;3.00;;;;;;;;;;7388031;19;19986;-70
2023/01/07 04:56:01;;;;;;;6.22;3.90;;;;;;;;;;7389443;19;20033;-70
2023/01/07 04:58:26;;;;;;;5.00;2.90;;;;;;;;;;7387697;19;20162;-69
2023/01/07 05:00:54;;;;;;;5.15;2.58;;;;;;;;;;7389154;19;20021;-70
2023/01/07 05:03:19;;;;;;;5.30;2.80;;;;;;;;;;7387780;19;20110;-70
2023/01/07 05:05:45;;;;;;;6.10;3.30;;;;;;;;;;7387013;19;20406;-70
2023/01/07 05:08:10;;;;;;;6.40;3.17;;;;;;;;;;7389206;19;19995;-70
2023/01/07 05:10:36;;;;;;;6.25;3.60;;;;;;;;;;7387271;19;20460;-70
2023/01/07 05:13:04;;;;;;;7.57;3.90;;;;;;;;;;7388128;19;20029;-70
2023/01/07 05:15:29;;;;;;;6.45;3.00;;;;;;;;;;7388813;19;19995;-70
2023/01/07 05:17:54;;;;;;;7.15;3.40;;;;;;;;;;7387883;19;20016;-71
2023/01/07 05:20:20;;;;;;;5.22;3.00;;;;;;;;;;7387347;19;20301;-71
2023/01/07 05:22:45;;;;;;;14.32;6.35;;;;;;;;;;7387452;19;19995;-69
2023/01/07 05:25:11;;;;;;;12.77;5.72;;;;;;;;;;7387946;19;20086;-70
2023/01/07 05:27:36;;;;;;;6.75;3.60;;;;;;;;;;7388847;19;19999;-70
2023/01/07 05:30:02;;;;;;;12.35;6.72;;;;;;;;;;7387104;19;20735;-70
2023/01/07 05:32:27;;;;;;;9.68;5.25;;;;;;;;;;7388477;19;20489;-69
2023/01/07 05:34:52;;;;;;;9.38;5.90;;;;;;;;;;7388019;19;19991;-69
2023/01/07 05:37:18;;;;;;;10.30;5.80;;;;;;;;;;7392424;19;19998;-70
2023/01/07 05:39:43;;;;;;;9.68;6.70;;;;;;;;;;7391300;19;20097;-69
2023/01/07 05:42:08;;;;;;;7.57;4.85;;;;;;;;;;7395367;19;19999;-69
2023/01/07 05:44:34;;;;;;;7.22;4.72;;;;;;;;;;7393588;19;20471;-69
2023/01/07 05:46:59;;;;;;;7.32;4.60;;;;;;;;;;7395577;19;20006;-69
2023/01/07 05:49:24;;;;;;;6.15;3.30;;;;;;;;;;7393939;19;20023;-70
2023/01/07 05:51:50;;;;;;;5.80;3.10;;;;;;;;;;7395826;19;19994;-70
2023/01/07 05:54:15;;;;;;;6.63;3.40;;;;;;;;;;7393949;19;19999;-71
2023/01/07 05:56:40;;;;;;;6.05;3.47;;;;;;;;;;7395426;19;19995;-71
2023/01/07 05:59:06;;;;;;;6.75;3.83;;;;;;;;;;7393836;19;19995;-71
2023/01/07 06:01:31;;;;;;;5.75;3.15;;;;;;;;;;7393812;19;20066;-71
2023/01/07 06:03:56;;;;;;;5.53;2.90;;;;;;;;;;7392116;19;19995;-71
2023/01/07 06:06:22;;;;;;;6.22;3.35;;;;;;;;;;7392160;19;19994;-71
2023/01/07 06:08:47;;;;;;;6.40;3.95;;;;;;;;;;7395691;19;20453;-70
2023/01/07 06:11:12;;;;;;;5.70;3.00;;;;;;;;;;7394654;19;19991;-70
2023/01/07 06:13:38;;;;;;;8.88;3.85;;;;;;;;;;7391621;19;19994;-71
2023/01/07 06:16:07;;;;;;;7.20;4.40;;;;;;;;;;7394534;19;19991;-70
2023/01/07 06:18:33;;;;;;;7.70;3.83;;;;;;;;;;7394028;19;20044;-70
2023/01/07 06:20:58;;;;;;;8.77;3.50;;;;;;;;;;7394237;19;20044;-71
2023/01/07 06:23:24;;;;;;;7.40;3.17;;;;;;;;;;7392910;19;20049;-70
2023/01/07 06:25:49;;;;;;;6.97;3.13;;;;;;;;;;7393009;19;20020;-70
2023/01/07 06:28:15;;;;;;;5.72;2.90;;;;;;;;;;7393675;19;20435;-69
2023/01/07 06:30:40;;;;;;;6.50;3.35;;;;;;;;;;7392056;19;19999;-70
2023/01/07 06:33:06;;;;;;;6.45;2.88;;;;;;;;;;7392998;19;20002;-70
2023/01/07 06:35:32;;;;;;;5.35;3.00;;;;;;;;;;7393846;19;20461;-70
2023/01/07 06:37:59;;;;;;;5.65;3.05;;;;;;;;;;7392273;19;20062;-69
2023/01/07 06:40:25;;;;;;;5.50;3.10;;;;;;;;;;7391859;19;20012;-69
2023/01/07 06:42:50;;;;;;;6.40;3.53;;;;;;;;;;7392024;19;19994;-69
2023/01/07 06:45:16;;;;;;;5.13;3.17;;;;;;;;;;7392515;19;19991;-69
2023/01/07 06:47:41;;;;;;;5.55;3.00;;;;;;;;;;7391928;19;20026;-69
2023/01/07 06:50:06;;;;;;;6.20;3.25;;;;;;;;;;7391478;19;20027;-70
2023/01/07 06:52:32;;;;;;;5.32;2.80;;;;;;;;;;7390865;19;19995;-69
2023/01/07 06:54:58;;;;;;;4.95;3.17;;;;;;;;;;7391913;19;20547;-69
2023/01/07 06:57:23;;;;;;;6.63;3.10;;;;;;;;;;7393057;19;19999;-69
2023/01/07 06:59:48;;;;;;;7.55;2.80;;;;;;;;;;7390502;19;20020;-70
2023/01/07 07:02:19;;;;;;;5.10;2.90;;;;;;;;;;7391626;19;20464;-70
2023/01/07 07:04:44;;;;;;;5.03;2.80;;;;;;;;;;7395172;19;19998;-70
2023/01/07 07:07:09;;;;;;;6.93;2.95;;;;;;;;;;7395920;19;20467;-70
2023/01/07 07:09:35;;;;;;;5.45;3.15;;;;;;;;;;7390909;19;20070;-70
2023/01/07 07:12:00;;;;;;;5.28;3.03;;;;;;;;;;7394338;19;20484;-70
2023/01/07 07:14:26;;;;;;;5.45;2.67;;;;;;;;;;7395918;19;20085;-70
2023/01/07 07:16:57;;;;;;;5.25;3.10;;;;;;;;;;7396304;19;19990;-71
2023/01/07 07:19:22;;;;;;;;;;;;;;;;;;7394187;19;20477;-69
2023/01/07 07:21:47;;;;;;;6.47;3.27;;;;;;;;;;7392499;19;19974;-65
2023/01/07 07:24:13;;;;;;;6.00;3.03;;;;;;;;;;7393564;19;20399;-70
2023/01/07 07:26:38;;;;;;;5.05;2.92;;;;;;;;;;7392746;19;19986;-71
2023/01/07 07:29:04;;;;;;;7.78;3.00;;;;;;;;;;7383335;19;20374;-71
2023/01/07 07:31:29;;;;;;;6.90;3.20;;;;;;;;;;7391056;19;20007;-72
2023/01/07 07:33:54;;;;;;;6.47;3.17;;;;;;;;;;7390313;19;20023;-70
2023/01/07 07:36:20;;;;;;;7.25;3.60;;;;;;;;;;7394041;19;20002;-70
2023/01/07 07:38:45;;;;;;;6.68;3.40;;;;;;;;;;7393178;19;20034;-69
2023/01/07 07:41:11;;;;;;;9.85;3.85;;;;;;;;;;7391898;19;20001;-70
2023/01/07 07:43:36;;;;;;;6.25;3.35;;;;;;;;;;7391207;19;20520;-70
2023/01/07 07:46:02;;;;;;;6.25;3.25;;;;;;;;;;7392290;19;20119;-70
2023/01/07 07:48:30;;;;;;;5.45;3.03;;;;;;;;;;7392775;19;20098;-70
2023/01/07 07:50:55;;;;;;;7.32;3.45;;;;;;;;;;7394661;19;20002;-70
2023/01/07 07:53:21;;;;;;;6.88;3.53;;;;;;;;;;7389576;19;19995;-70
2023/01/07 07:55:46;;;;;;;7.32;3.85;;;;;;;;;;7391083;19;20276;-70
2023/01/07 07:58:12;;;;;;;7.53;3.58;;;;;;;;;;7393026;19;20473;-70
2023/01/07 08:00:37;;;;;;;6.15;3.47;;;;;;;;;;7391038;19;20452;-70
2023/01/07 08:03:03;;;;;;;6.38;3.75;;;;;;;;;;7387425;19;20470;-70
2023/01/07 08:05:29;;;;;;;6.65;3.55;;;;;;;;;;7389036;19;20014;-70
2023/01/07 08:07:55;;;;;;;5.50;3.30;;;;;;;;;;7388755;19;20003;-70
2023/01/07 08:10:21;;;;;;;7.88;3.85;;;;;;;;;;7386250;19;20028;-71
2023/01/07 08:12:46;;;;;;;7.88;3.85;;;;;;;;;;7387646;19;19998;-71
2023/01/07 08:15:12;;;;;;;8.07;3.72;;;;;;;;;;7388931;19;20329;-70
2023/01/07 08:17:37;;;;;;;6.97;3.65;;;;;;;;;;7390075;19;20006;-71
2023/01/07 08:20:04;;;;;;;6.55;3.65;;;;;;;;;;7389204;19;20011;-71
2023/01/07 08:22:29;;;;;;;5.68;3.05;;;;;;;;;;7389377;19;20003;-71
2023/01/07 08:24:55;;;;;;;7.38;3.28;;;;;;;;;;7387885;19;20027;-71
2023/01/07 08:27:20;;;;;;;6.60;3.58;;;;;;;;;;7390378;19;20046;-70
2023/01/07 08:29:46;;;;;;;7.63;3.47;;;;;;;;;;7387478;19;20067;-70
2023/01/07 08:32:11;;;;;;;8.38;3.63;;;;;;;;;;7390016;19;20457;-71
2023/01/07 08:34:36;;;;;;;7.35;3.40;;;;;;;;;;7388354;19;20442;-72
2023/01/07 08:37:02;;;;;;;6.60;3.17;;;;;;;;;;7383844;19;20003;-70
2023/01/07 08:39:27;;;;;;;6.43;3.47;;;;;;;;;;7388138;19;20113;-77
2023/01/07 08:41:53;;;;;;;6.07;3.20;;;;;;;;;;7391649;19;19995;-87
2023/01/07 08:44:18;;;;;;;6.18;3.50;;;;;;;;;;7391248;19;19999;-75
2023/01/07 08:46:43;;;;;;;6.65;3.60;;;;;;;;;;7392006;19;20021;-71
2023/01/07 08:49:09;;;;;;;5.82;3.30;;;;;;;;;;7389114;19;20006;-76
2023/01/07 08:51:35;;;;;;;7.50;3.42;;;;;;;;;;7390917;19;20028;-76
2023/01/07 08:54:01;;;;;;;8.02;3.85;;;;;;;;;;7388766;19;20348;-85
2023/01/07 08:56:26;;;;;;;7.57;4.00;;;;;;;;;;7392034;19;20482;-78
2023/01/07 08:58:51;;;;;;;8.25;4.00;;;;;;;;;;7391465;19;20493;-76
2023/01/07 09:01:16;;;;;;;7.05;3.60;;;;;;;;;;7389778;19;20002;-73
2023/01/07 09:03:42;;;;;;;7.88;3.78;;;;;;;;;;7390219;19;20029;-77
2023/01/07 09:06:07;;;;;;;7.10;4.07;;;;;;;;;;7388804;19;19994;-69
2023/01/07 09:08:33;;;;;;;6.72;4.10;;;;;;;;;;7389955;19;20006;-78
2023/01/07 09:10:58;;;;;;;8.32;4.38;;;;;;;;;;7391631;19;19998;-73
2023/01/07 09:13:23;;;;;;;8.68;4.35;;;;;;;;;;7391437;19;20012;-73
2023/01/07 09:15:48;;;;;;;8.77;4.47;;;;;;;;;;7398978;19;19995;-73
2023/01/07 09:18:14;;;;;;;7.50;4.40;;;;;;;;;;7399014;19;20391;-75
2023/01/07 09:20:39;;;;;;;11.40;4.90;;;;;;;;;;7394915;19;20011;-77
2023/01/07 09:23:05;;;;;;;8.57;4.20;;;;;;;;;;7397824;19;20014;-75
2023/01/07 09:25:30;;;;;;;7.68;4.05;;;;;;;;;;7394579;19;19999;-75
2023/01/07 09:27:56;;;;;;;8.85;4.57;;;;;;;;;;7397690;19;20002;-78
2023/01/07 09:30:21;;;;;;;7.60;4.07;;;;;;;;;;7394539;19;20343;-78
2023/01/07 09:32:46;;;;;;;7.50;3.72;;;;;;;;;;7397553;19;20444;-74
2023/01/07 09:35:12;;;;;;;8.82;4.72;;;;;;;;;;7396822;19;19994;-76
2023/01/07 09:37:37;;;;;;;7.70;3.92;;;;;;;;;;7396356;19;20015;-77
2023/01/07 09:40:18;;;;;;;6.97;3.95;;;;;;;;;;7393837;19;20354;-76
2023/01/07 09:43:13;;;;;;;7.70;4.10;;;;;;;;;;7396965;19;20005;-72
2023/01/07 09:45:44;;;;;;;8.95;4.30;;;;;;;;;;7394222;19;20007;-73
2023/01/07 09:48:34;;;;;;;8.10;4.53;;;;;;;;;;7398458;19;20030;-71
2023/01/07 09:51:05;;;;;;;6.40;4.22;;;;;;;;;;7392289;19;20026;-74
2023/01/07 09:53:38;;;;;;;7.97;4.38;;;;;;;;;;7397125;19;20014;-76
2023/01/07 09:56:07;;;;;;;7.82;4.05;;;;;;;;;;7394756;19;20087;-77
2023/01/07 09:58:32;;;;;;;9.10;4.35;;;;;;;;;;7397593;19;20000;-80
2023/01/07 10:01:01;;;;;;;8.40;5.15;;;;;;;;;;7397214;19;20467;-77
2023/01/07 10:03:53;;;;;;;7.13;3.88;;;;;;;;;;7394298;19;19982;-76
2023/01/07 10:06:30;;;;;;;7.47;4.10;;;;;;;;;;7392668;19;19997;-77
2023/01/07 10:09:14;;;;;;;12.48;3.90;;;;;;;;;;7395490;19;20002;-77
2023/01/07 10:11:53;;;;;;;6.18;3.72;;;;;;;;;;7398746;19;20115;-77
2023/01/07 10:14:46;;;;;;;8.32;3.90;;;;;;;;;;7396160;19;20006;-77
2023/01/07 10:17:26;;;;;;;9.05;3.72;;;;;;;;;;7393064;19;20002;-75
2023/01/07 10:20:02;;;;;;;6.07;3.30;;;;;;;;;;7393468;19;19998;-77
2023/01/07 10:22:36;;;;;;;8.30;4.07;;;;;;;;;;7393576;19;19999;-77
2023/01/07 10:25:17;;;;;;;6.25;3.63;;;;;;;;;;7391622;19;20455;-77
2023/01/07 10:27:45;;;;;;;4.95;2.95;;;;;;;;;;7395319;19;20020;-77
2023/01/07 10:30:20;;;;;;;6.15;3.60;;;;;;;;;;7393106;19;20427;-77
2023/01/07 10:32:48;;;;;;;5.63;2.40;;;;;;;;;;7388576;19;20064;-76
2023/01/07 10:35:19;;;;;;;5.45;2.50;;;;;;;;;;7390117;19;19995;-76
2023/01/07 10:37:45;;;;;;;4.82;2.63;;;;;;;;;;7392778;19;20031;-76
2023/01/07 10:40:33;;;;;;;3.80;2.28;;;;;;;;;;7391321;19;20475;-76
2023/01/07 10:43:19;;;;;;;4.25;2.33;;;;;;;;;;7392685;19;19998;-76
2023/01/07 10:46:20;;;;;;;4.43;2.28;;;;;;;;;;7391997;19;20003;-76
2023/01/07 10:49:08;;;;;;;5.43;2.03;;;;;;;;;;7391245;19;20002;-76
2023/01/07 10:51:58;;;;;;;2.67;1.60;;;;;;;;;;7390496;19;19991;-76
2023/01/07 10:55:09;;;;;;;3.85;2.20;;;;;;;;;;7391672;19;19998;-77
2023/01/07 10:57:36;;;;;;;3.78;1.85;;;;;;;;;;7392686;19;19998;-76
2023/01/07 11:00:06;;;;;;;3.20;1.70;;;;;;;;;;7389783;19;20024;-76
2023/01/07 11:02:32;;;;;;;3.97;2.05;;;;;;;;;;7390625;19;20070;-76
2023/01/07 11:04:58;;;;;;;2.53;1.50;;;;;;;;;;7392401;19;20015;-76
2023/01/07 11:07:39;;;;;;;3.53;1.80;;;;;;;;;;7392575;19;19999;-76
2023/01/07 11:10:06;;;;;;;2.53;1.70;;;;;;;;;;7391037;19;19999;-76
2023/01/07 11:12:37;;;;;;;3.53;1.80;;;;;;;;;;7391622;19;20018;-76
2023/01/07 11:15:07;;;;;;;4.10;1.80;;;;;;;;;;7392496;19;20337;-76
2023/01/07 11:17:43;;;;;;;3.70;1.90;;;;;;;;;;7392650;19;20003;-76
2023/01/07 11:20:08;;;;;;;3.00;1.80;;;;;;;;;;7391129;19;19999;-76
2023/01/07 11:22:38;;;;;;;3.17;1.60;;;;;;;;;;7391212;19;20449;-76
2023/01/07 11:25:28;;;;;;;2.25;1.45;;;;;;;;;;7391772;19;20129;-76
2023/01/07 11:27:58;;;;;;;3.85;1.70;;;;;;;;;;7390942;19;20020;-76
2023/01/07 11:30:29;;;;;;;3.50;1.50;;;;;;;;;;7393760;19;20015;-76
2023/01/07 11:33:01;;;;;;;2.38;1.60;;;;;;;;;;7391139;19;20016;-76
2023/01/07 11:35:27;;;;;;;3.40;1.83;;;;;;;;;;7391043;19;20347;-77
2023/01/07 11:37:54;;;;;;;2.17;1.45;;;;;;;;;;7391534;19;19999;-77
2023/01/07 11:40:23;;;;;;;3.33;1.75;;;;;;;;;;7389332;19;20315;-77
2023/01/07 11:42:53;;;;;;;1.55;1.30;;;;;;;;;;7390543;19;20006;-77
2023/01/07 11:45:22;;;;;;;3.38;1.45;;;;;;;;;;7391039;19;19998;-77
2023/01/07 11:48:08;;;;;;;2.63;1.50;;;;;;;;;;7392770;19;20102;-77
2023/01/07 11:50:40;;;;;;;5.22;2.83;;;;;;;;;;7386488;19;20098;-77
2023/01/07 11:53:15;;;;;;;17.20;8.23;;;;;;;;;;7389614;19;20050;-77
2023/01/07 11:55:54;;;;;;;9.52;5.05;;;;;;;;;;7391698;19;19994;-77
2023/01/07 11:58:19;;;;;;;14.35;7.60;;;;;;;;;;7391337;19;20001;-77
2023/01/07 12:00:45;;;;;;;6.45;2.92;;;;;;;;;;7393203;19;20054;-77
2023/01/07 12:03:12;;;;;;;8.18;4.50;;;;;;;;;;7389406;19;20006;-77
2023/01/07 12:05:43;;;;;;;7.80;3.63;;;;;;;;;;7389711;19;20006;-77
2023/01/07 12:08:18;;;;;;;8.95;4.57;;;;;;;;;;7391102;19;20461;-77
2023/01/07 12:10:44;;;;;;;5.75;2.88;;;;;;;;;;7393995;19;20015;-77
2023/01/07 12:13:24;;;;;;;6.30;2.45;;;;;;;;;;7389547;19;19991;-77
2023/01/07 12:15:56;;;;;;;5.07;2.67;;;;;;;;;;7390479;19;19997;-77
2023/01/07 12:18:59;;;;;;;3.38;2.00;;;;;;;;;;7389226;19;20006;-77
2023/01/07 12:21:35;;;;;;;3.58;2.00;;;;;;;;;;7388718;19;19998;-77
2023/01/07 12:24:46;;;;;;;3.42;1.70;;;;;;;;;;7388965;19;20062;-77
2023/01/07 12:27:22;;;;;;;6.55;3.42;;;;;;;;;;7389153;19;20006;-77
2023/01/07 12:30:02;;;;;;;4.82;2.40;;;;;;;;;;7389010;19;20029;-77
2023/01/07 12:32:42;;;;;;;3.40;1.90;;;;;;;;;;7389878;19;20090;-77
2023/01/07 12:35:19;;;;;;;3.50;2.00;;;;;;;;;;7389648;19;20062;-77
2023/01/07 12:37:52;;;;;;;3.00;1.90;;;;;;;;;;7389985;19;20385;-77
2023/01/07 12:40:34;;;;;;;4.55;2.10;;;;;;;;;;7388672;19;20023;-77
2023/01/07 12:43:34;;;;;;;5.00;2.00;;;;;;;;;;7386812;19;20003;-77
2023/01/07 12:46:20;;;;;;;4.10;2.33;;;;;;;;;;7388164;19;20057;-77
2023/01/07 12:48:54;;;;;;;3.97;2.00;;;;;;;;;;7399791;19;20475;-77
2023/01/07 12:51:25;;;;;;;3.22;2.08;;;;;;;;;;7403746;19;20006;-77
2023/01/07 12:53:57;;;;;;;;;;;;;;;;;;7403133;19;20069;-77
2023/01/07 12:56:27;;;;;;;4.47;2.22;;;;;;;;;;7402137;19;20339;-77
2023/01/07 12:59:10;;;;;;;6.07;2.07;;;;;;;;;;7403537;19;20020;-77
2023/01/07 13:01:47;;;;;;;4.57;2.45;;;;;;;;;;7403583;19;20472;-77
2023/01/07 13:04:40;;;;;;;3.47;2.00;;;;;;;;;;7402490;19;20466;-77
2023/01/07 13:07:33;;;;;;;4.25;1.80;;;;;;;;;;7403641;19;19999;-76
2023/01/07 13:10:23;;;;;;;3.88;2.20;;;;;;;;;;7401805;19;20542;-77
2023/01/07 13:12:53;;;;;;;3.13;1.80;;;;;;;;;;7404811;19;20025;-77
2023/01/07 13:15:33;;;;;;;6.18;2.15;;;;;;;;;;7406583;19;20028;-78
2023/01/07 13:18:16;;;;;;;3.78;1.80;;;;;;;;;;7406412;19;20391;-77
2023/01/07 13:21:03;;;;;;;3.13;1.70;;;;;;;;;;7405558;19;20062;-76
2023/01/07 13:24:06;;;;;;;3.97;2.05;;;;;;;;;;7403529;19;20402;-76
2023/01/07 13:26:37;;;;;;;3.50;1.75;;;;;;;;;;7400822;19;20002;-76
2023/01/07 13:29:11;;;;;;;;;;;;;;;;;;7403749;19;19995;-76
2023/01/07 13:31:48;;;;;;;4.97;1.90;;;;;;;;;;7405251;19;19907;-77
2023/01/07 13:34:32;;;;;;;2.80;1.60;;;;;;;;;;7403190;19;19991;-77
2023/01/07 13:37:24;;;;;;;3.58;1.95;;;;;;;;;;7402229;19;19998;-78
2023/01/07 13:39:49;;;;;;;;;;;;;;;;;;7405757;19;20050;-77
2023/01/07 13:42:26;;;;;;;4.77;1.57;;;;;;;;;;7399211;19;20380;-78
2023/01/07 13:44:57;;;;;;;6.78;2.20;;;;;;;;;;7402107;19;20003;-79
2023/01/07 13:47:25;;;;;;;2.75;1.73;;;;;;;;;;7404444;19;19994;-77
2023/01/07 13:49:56;;;;;;;4.45;2.00;;;;;;;;;;7400096;19;20338;-77
2023/01/07 13:52:22;;;;;;;;;;;;;;;;;;7404603;19;20012;-74
2023/01/07 13:54:48;;;;;;;3.42;1.80;;;;;;;;;;7401200;19;19922;-74
2023/01/07 13:57:22;;;;;;;3.83;2.10;;;;;;;;;;7401761;19;20005;-74
2023/01/07 13:59:51;;;;;;;4.55;2.20;;;;;;;;;;7392545;19;20118;-75
2023/01/07 14:02:24;;;;;;;3.28;1.77;;;;;;;;;;7396830;19;19994;-72
2023/01/07 14:05:04;;;;;;;3.60;1.95;;;;;;;;;;7393789;19;20001;-73
2023/01/07 14:07:30;;;;;;;4.57;2.00;;;;;;;;;;7394375;19;20015;-74
2023/01/07 14:09:57;;;;;;;4.03;2.20;;;;;;;;;;7391836;19;20020;-73
2023/01/07 14:12:34;;;;;;;3.63;1.92;;;;;;;;;;7395604;19;19994;-74
2023/01/07 14:15:02;;;;;;;4.80;2.28;;;;;;;;;;7398174;19;20342;-73
2023/01/07 14:17:53;;;;;;;4.03;2.25;;;;;;;;;;7394186;19;19998;-72
2023/01/07 14:20:40;;;;;;;4.65;2.00;;;;;;;;;;7394100;19;20027;-72
2023/01/07 14:23:26;;;;;;;3.90;2.00;;;;;;;;;;7394145;19;20007;-72
2023/01/07 14:26:07;;;;;;;3.85;2.03;;;;;;;;;;7393095;19;20010;-73
2023/01/07 14:28:41;;;;;;;3.35;1.50;;;;;;;;;;7394819;19;20069;-72
2023/01/07 14:31:22;;;;;;;3.83;1.90;;;;;;;;;;7397159;19;20287;-73
2023/01/07 14:34:11;;;;;;;;;;;;;;;;;;7396687;19;20003;-74
2023/01/07 14:37:03;;;;;;;4.85;2.28;;;;;;;;;;7400976;19;19923;-78
2023/01/07 14:39:58;;;;;;;4.05;2.13;;;;;;;;;;7391639;19;20006;-71
2023/01/07 14:42:42;;;;;;;4.47;2.03;;;;;;;;;;7397020;19;20057;-72
2023/01/07 14:45:35;;;;;;;3.80;2.10;;;;;;;;;;7405351;19;19987;-74
2023/01/07 14:48:06;;;;;;;5.00;2.20;;;;;;;;;;7396165;19;20009;-75
2023/01/07 14:50:55;;;;;;;5.70;2.70;;;;;;;;;;7393414;19;20437;-73
2023/01/07 14:53:45;;;;;;;4.53;2.33;;;;;;;;;;7391821;19;20020;-76
2023/01/07 14:56:13;;;;;;;3.75;1.90;;;;;;;;;;7390269;19;20110;-77
2023/01/07 14:58:58;;;;;;;4.88;2.30;;;;;;;;;;7389041;19;20025;-76
2023/01/07 15:01:42;;;;;;;5.18;2.70;;;;;;;;;;7392911;19;20002;-77
2023/01/07 15:04:25;;;;;;;5.72;2.03;;;;;;;;;;7394519;19;19998;-77
2023/01/07 15:06:55;;;;;;;4.25;2.40;;;;;;;;;;7392992;19;20479;-77
2023/01/07 15:17:59;;;;;;;3.80;2.08;;;;;;;;;;7392606;19;20017;-76
2023/01/07 15:20:37;;;;;;;4.20;2.08;;;;;;;;;;7389755;19;19998;-76
2023/01/07 15:23:20;;;;;;;4.88;2.28;;;;;;;;;;7390843;19;20003;-76